WetterOnline ( https://www.wetteronline.ch )

Wetter aktuell Veckenstedt

Aktuelles Wetter: Wernigerode (240m)

6-stündlich | Neueste Meldungen
Ortszeit Temperatur Wetter
Mi, 21.10. 20:00 15.9° C wolkig
Mi, 21.10. 14:00 17.3° C wolkig
Mi, 21.10. 8:00 13.4° C bedeckt
Mi, 21.10. 2:00 12.6° C wolkig
Di, 20.10. 20:00 13.1° C bedeckt
Di, 20.10. 14:00 12.5° C bedeckt
Di, 20.10. 8:00 5.9° C bedeckt
Di, 20.10. 2:00 5.5° C bedeckt
Ortszeit Temperatur Wetter
Mi, 21.10. 22:30 15.6° C wolkenlos
Mi, 21.10. 22:20 15.6° C wolkenlos
Mi, 21.10. 22:10 15.6° C fast wolkenlos
Mi, 21.10. 22:00 15.2° C wolkig
Mi, 21.10. 21:50 15.2° C wolkig
Mi, 21.10. 21:40 15.3° C wolkig
Mi, 21.10. 21:30 15.4° C leicht bewölkt
Mi, 21.10. 21:00 15.4° C leicht bewölkt
Mi, 21.10. 20:30 15.6° C wolkig
Mi, 21.10. 20:00 15.9° C wolkig
Mi, 21.10. 19:30 15.6° C leicht bewölkt
Ortszeit Relative Feuchte Sichtweite
Mi, 21.10. 20:00 54% 45 km
Mi, 21.10. 14:00 51% 60 km
Mi, 21.10. 8:00 65% 55 km
Mi, 21.10. 2:00 78% 55 km
Di, 20.10. 20:00 79% 50 km
Di, 20.10. 14:00 60% 55 km
Di, 20.10. 8:00 73% 35 km
Di, 20.10. 2:00 83% 27 km
Ortszeit Relative Feuchte Sichtweite
Mi, 21.10. 22:30 58% 45 km
Mi, 21.10. 22:20 58% -
Mi, 21.10. 22:10 57% -
Mi, 21.10. 22:00 58% 40 km
Mi, 21.10. 21:50 58% -
Mi, 21.10. 21:40 57% -
Mi, 21.10. 21:30 57% 45 km
Mi, 21.10. 21:00 56% 40 km
Mi, 21.10. 20:30 55% 50 km
Mi, 21.10. 20:00 54% 45 km
Mi, 21.10. 19:30 55% 55 km
Ortszeit Niederschlagsmenge Niederschlagsart
Mi, 21.10. 20:00 0.1 l/m2 in 12 Std. Regen
Mi, 21.10. 14:00 0.1 l/m2 in 6 Std. Regen
Mi, 21.10. 8:00 0.1 l/m2 in 12 Std. Regen
Mi, 21.10. 2:00 0.1 l/m2 in 6 Std. Regen
Di, 20.10. 20:00 0.1 l/m2 in 12 Std. Regen
Di, 20.10. 14:00 0.0 l/m2 in 6 Std. -
Di, 20.10. 8:00 0.0 l/m2 in 12 Std. -
Di, 20.10. 2:00 0.0 l/m2 in 6 Std. -
Ortszeit Niederschlagsmenge Niederschlagsart
Mi, 21.10. 22:30 0.0 l/m2 in 1 Std. -
Mi, 21.10. 22:20 keine Meldung -
Mi, 21.10. 22:10 keine Meldung -
Mi, 21.10. 22:00 0.0 l/m2 in 1 Std. -
Mi, 21.10. 21:50 keine Meldung -
Mi, 21.10. 21:40 keine Meldung -
Mi, 21.10. 21:30 0.0 l/m2 in 1 Std. -
Mi, 21.10. 21:00 0.0 l/m2 in 1 Std. -
Mi, 21.10. 20:30 0.0 l/m2 in 1 Std. -
Mi, 21.10. 20:00 0.0 l/m2 in 1 Std. Regen
Mi, 21.10. 19:30 0.0 l/m2 in 1 Std. -
Ortszeit Stärke Spitze Richtung
km/h Bft. km/h Grad Sektor
Mi, 21.10. 20:00 11 2 57 190° S
Mi, 21.10. 14:00 29 5 68 200° S
Mi, 21.10. 8:00 17 3 44 180° S
Mi, 21.10. 2:00 7 2 36 120° SO
Di, 20.10. 20:00 6 1 56 140° SO
Di, 20.10. 14:00 22 4 61 180° S
Di, 20.10. 8:00 7 2 40 170° S
Di, 20.10. 2:00 7 2 26 100° O
Ortszeit Stärke Spitze Richtung
km/h Bft. km/h Grad Sektor
Mi, 21.10. 22:30 13 3 26 170° S
Mi, 21.10. 22:20 13 3 - 170° S
Mi, 21.10. 22:10 13 3 - 160° S
Mi, 21.10. 22:00 13 3 35 170° S
Mi, 21.10. 21:50 13 3 - 170° S
Mi, 21.10. 21:40 14 3 - 170° S
Mi, 21.10. 21:30 17 3 28 180° S
Mi, 21.10. 21:00 14 3 40 190° S
Mi, 21.10. 20:30 18 3 40 200° S
Mi, 21.10. 20:00 11 2 39 190° S
Mi, 21.10. 19:30 14 3 40 180° S
Ortszeit Untergrenze Bedeckung Gattung
total tief tief mittel hoch
Mi, 21.10. 20:00 9000 m 8/8 0/8 - - -
Mi, 21.10. 14:00 2700 m 8/8 5/8 - - -
Mi, 21.10. 8:00 2400 m 8/8 8/8 - - -
Mi, 21.10. 2:00 2400 m 8/8 1/8 - - -
Di, 20.10. 20:00 2400 m 8/8 8/8 - - -
Di, 20.10. 14:00 4800 m 8/8 8/8 - - -
Di, 20.10. 8:00 5400 m 8/8 8/8 - - -
Di, 20.10. 2:00 6600 m 8/8 8/8 - - -
Ortszeit Bedeckungsgrad in Achtel und Wolkenuntergrenze
Mi, 21.10. 22:30 keine Wolken
Mi, 21.10. 22:20 keine Wolken
Mi, 21.10. 22:10 2(9000m)
Mi, 21.10. 22:00 7(9000m)
Mi, 21.10. 21:50 7(9000m)
Mi, 21.10. 21:40 7(9000m) 7(10500m)
Mi, 21.10. 21:30 5(9000m) 6(10500m)
Mi, 21.10. 21:00 4(9000m) 4(10500m)
Mi, 21.10. 20:30 4(9000m) 8(9000m)
Mi, 21.10. 20:00 8(9000m)
Mi, 21.10. 19:30 4(9000m) 5(9000m) 6(9000m)
Ortszeit Luftdruck NN (hPa) Tendenz (hPa in 3 Std.)
Mi, 21.10. 20:00 1006 + 0,3
Mi, 21.10. 14:00 1006 - 0,5
Mi, 21.10. 8:00 1008 - 0,7
Mi, 21.10. 2:00 1010 - 1,1
Di, 20.10. 20:00 1011 + 0,1
Di, 20.10. 14:00 1011 - 1,5
Di, 20.10. 8:00 1015 - 2,4
Di, 20.10. 2:00 1020 - 2,0
Ortszeit Luftdruck NN (hPa) Tendenz (hPa in 3 Std.)
Mi, 21.10. 22:30 1007 + 0,5
Mi, 21.10. 22:20 1007 keine Meldung
Mi, 21.10. 22:10 1007 keine Meldung
Mi, 21.10. 22:00 1007 + 0,7
Mi, 21.10. 21:50 1007 keine Meldung
Mi, 21.10. 21:40 1007 keine Meldung
Mi, 21.10. 21:30 1007 + 0,8
Mi, 21.10. 21:00 1006 + 0,5
Mi, 21.10. 20:30 1006 + 0,7
Mi, 21.10. 20:00 1006 + 0,3
Mi, 21.10. 19:30 1006 + 0,3
Ortszeit Schneehöhe (cm)
Mi, 21.10. 20:00 0
Mi, 21.10. 14:00 0
Mi, 21.10. 8:00 0
Mi, 21.10. 2:00 0
Di, 20.10. 20:00 0
Di, 20.10. 14:00 0
Di, 20.10. 8:00 0
Di, 20.10. 2:00 0
Ortszeit Schneehöhe (cm)
Mi, 21.10. 22:30 0
Mi, 21.10. 22:20 0
Mi, 21.10. 22:10 0
Mi, 21.10. 22:00 0
Mi, 21.10. 21:50 0
Mi, 21.10. 21:40 0
Mi, 21.10. 21:30 0
Mi, 21.10. 21:00 0
Mi, 21.10. 20:30 0
Mi, 21.10. 20:00 0
Mi, 21.10. 19:30 0
Link zu dieser Seite / Seite empfehlen

Das Wetter in ...